Schwertner, Texas
Current Conditions -  °F | °C
As of 5:58 PM on Wednesday 26 Nov 2014 (Local Time) from KGRK Reporting Station
Clear Clear  
Wind Chill: 58°   Ceiling: Unl
Heat Index: 58°   Visibility: 10mi
Dew Point: 33°   Wind: 7mph
Humidity: 38%   Direction: 350°N
Pressure: 30.24"   Gusts: NA
Location:  30.82°N, 97.51°W
Report Text: KGRK 262358Z AUTO 35006KT 10SM CLR 15/01 A3024 RMK AO2 RAB2325E2331 SLP240 P0000 60000 T01460005 10204 20145 52024
Loading
Personal Weather Stations






























Interactive Weather Map New forecast layout! Learn more

10-Day Weather Forecast

Advertisements
Track Severe Weather on mobile